Time;durP1;ratioP1;P1;durP2;ratioP2;P2;SDS_P1;SDS_P2;PMS_P1;PMS_P2;Temp;Humidity;BMP_temperature;BMP_pressure;BME280_temperature;BME280_humidity;BME280_pressure;Samples;Min_cycle;Max_cycle;Signal;HPM_P1;HPM_P2
2023/06/30 00:02:05;;;;;;;3.23;3.03;;;26.90;59.00;;;;;;4978493;28;20541;-82
2023/06/30 00:04:34;;;;;;;3.40;3.10;;;26.90;59.00;;;;;;4963015;28;20437;-82
2023/06/30 00:07:02;;;;;;;3.17;2.97;;;26.90;58.70;;;;;;4976845;28;20419;-81
2023/06/30 00:09:30;;;;;;;3.20;3.00;;;26.90;58.80;;;;;;4966003;28;20424;-81
2023/06/30 00:11:58;;;;;;;4.00;3.60;;;26.80;58.60;;;;;;4963165;28;20504;-83
2023/06/30 00:14:26;;;;;;;3.60;3.40;;;26.80;58.60;;;;;;4969555;28;20424;-81
2023/06/30 00:16:56;;;;;;;4.27;3.97;;;26.80;58.60;;;;;;4975977;28;20499;-83
2023/06/30 00:19:26;;;;;;;4.57;3.87;;;26.80;58.50;;;;;;4979263;28;20497;-82
2023/06/30 00:21:55;;;;;;;4.20;3.90;;;26.80;58.30;;;;;;4979938;28;20497;-81
2023/06/30 00:24:23;;;;;;;4.17;3.87;;;26.80;58.50;;;;;;4979478;28;20500;-82
2023/06/30 00:26:52;;;;;;;5.17;4.60;;;26.80;58.40;;;;;;4979775;28;20450;-82
2023/06/30 00:29:20;;;;;;;4.90;4.50;;;26.70;58.40;;;;;;4979842;28;20437;-82
2023/06/30 00:31:48;;;;;;;5.27;4.40;;;26.70;58.40;;;;;;4979774;28;20425;-82
2023/06/30 00:34:16;;;;;;;6.60;5.90;;;26.70;58.50;;;;;;4961961;28;20461;-82
2023/06/30 00:36:46;;;;;;;7.90;7.10;;;26.70;58.40;;;;;;4975172;28;20445;-84
2023/06/30 00:39:14;;;;;;;5.73;5.20;;;26.70;58.40;;;;;;4979473;28;20408;-82
2023/06/30 00:41:42;;;;;;;5.93;5.20;;;26.70;58.20;;;;;;4979121;28;20497;-82
2023/06/30 00:44:10;;;;;;;5.97;5.37;;;26.70;58.20;;;;;;4978816;28;20420;-82
2023/06/30 00:46:38;;;;;;;9.87;6.70;;;26.70;58.20;;;;;;4978891;28;20440;-82
2023/06/30 00:49:06;;;;;;;6.20;5.60;;;26.70;58.10;;;;;;4972732;28;20924;-81
2023/06/30 00:51:34;;;;;;;6.63;6.00;;;26.70;58.00;;;;;;4960680;29;20413;-80
2023/06/30 00:54:03;;;;;;;7.13;6.43;;;26.70;58.00;;;;;;4961065;29;20438;-82
2023/06/30 00:56:31;;;;;;;8.13;6.90;;;26.60;58.00;;;;;;4959926;29;20449;-82
2023/06/30 00:58:59;;;;;;;7.37;6.67;;;26.60;58.00;;;;;;4959994;28;20485;-82
2023/06/30 01:01:32;;;;;;;9.33;7.73;;;26.60;57.90;;;;;;4959857;29;20429;-82
2023/06/30 01:04:03;;;;;;;9.17;7.60;;;26.60;58.00;;;;;;4959949;29;20475;-82
2023/06/30 01:06:37;;;;;;;9.93;7.67;;;26.60;57.80;;;;;;4959908;28;20498;-81
2023/06/30 01:09:09;;;;;;;8.70;7.80;;;26.60;57.80;;;;;;4959639;29;20447;-82
2023/06/30 01:11:37;;;;;;;8.53;7.60;;;26.60;57.80;;;;;;4959551;28;20457;-83
2023/06/30 01:14:06;;;;;;;8.47;7.70;;;26.60;57.80;;;;;;4959480;29;20482;-82
2023/06/30 01:16:34;;;;;;;9.20;7.83;;;26.60;57.80;;;;;;4958872;29;20848;-83
2023/06/30 01:19:04;;;;;;;9.87;7.43;;;26.60;57.80;;;;;;4959083;28;20425;-83
2023/06/30 01:21:32;;;;;;;9.20;8.10;;;26.60;57.60;;;;;;4959161;29;20474;-81
2023/06/30 01:24:03;;;;;;;9.57;7.40;;;26.60;57.60;;;;;;4959262;28;20509;-82
2023/06/30 01:26:34;;;;;;;8.53;7.63;;;26.50;57.50;;;;;;4959766;29;20474;-83
2023/06/30 01:29:03;;;;;;;10.27;7.43;;;26.60;57.50;;;;;;4959677;29;20398;-83
2023/06/30 01:31:31;;;;;;;8.50;7.57;;;26.50;57.50;;;;;;4959340;29;20468;-83
2023/06/30 01:33:59;;;;;;;9.10;8.10;;;26.50;57.50;;;;;;4958904;29;20449;-83
2023/06/30 01:36:27;;;;;;;9.00;7.80;;;26.50;57.40;;;;;;4958948;29;20514;-82
2023/06/30 01:38:56;;;;;;;12.53;7.87;;;26.50;57.40;;;;;;4959400;28;20454;-82
2023/06/30 01:41:23;;;;;;;8.53;7.70;;;26.50;57.30;;;;;;4959033;29;20484;-82
2023/06/30 01:43:54;;;;;;;9.03;7.77;;;26.50;57.30;;;;;;4958973;29;20432;-83
2023/06/30 01:46:22;;;;;;;8.77;7.67;;;26.40;57.10;;;;;;4959153;28;20467;-82
2023/06/30 01:48:50;;;;;;;11.07;7.70;;;26.40;57.30;;;;;;4958798;29;20519;-83
2023/06/30 01:51:19;;;;;;;8.07;6.90;;;26.40;57.20;;;;;;4959589;29;20421;-83
2023/06/30 01:53:46;;;;;;;8.37;7.50;;;26.40;57.20;;;;;;4959062;29;20447;-82
2023/06/30 01:56:14;;;;;;;10.00;8.10;;;26.40;57.20;;;;;;4970848;28;20487;-82
2023/06/30 01:58:42;;;;;;;8.47;7.33;;;26.40;57.20;;;;;;4977751;28;20927;-82
2023/06/30 02:01:11;;;;;;;10.07;7.83;;;26.40;56.80;;;;;;4979265;28;20424;-83
2023/06/30 02:03:39;;;;;;;9.10;7.20;;;26.40;56.90;;;;;;4977531;28;20489;-82
2023/06/30 02:13:36;;;;;;;7.90;7.10;;;26.30;57.00;;;;;;4969180;28;20380;-82
2023/06/30 02:16:04;;;;;;;8.50;7.60;;;26.20;57.20;;;;;;4976345;28;20513;-84
2023/06/30 02:18:34;;;;;;;7.10;6.43;;;26.30;56.80;;;;;;4976593;28;20836;-82
2023/06/30 02:21:02;;;;;;;6.90;6.30;;;26.30;57.00;;;;;;4976199;28;20421;-82
2023/06/30 02:23:30;;;;;;;7.50;6.80;;;26.30;56.90;;;;;;4976296;28;20425;-82
2023/06/30 02:25:59;;;;;;;7.67;6.97;;;26.30;56.80;;;;;;4970035;28;20533;-83
2023/06/30 02:28:27;;;;;;;7.60;6.77;;;26.30;56.80;;;;;;4975298;28;20561;-83
2023/06/30 02:30:55;;;;;;;9.67;7.20;;;26.30;56.80;;;;;;4976485;28;20505;-83
2023/06/30 02:33:24;;;;;;;7.60;6.80;;;26.30;56.80;;;;;;4977113;28;20417;-83
2023/06/30 02:35:53;;;;;;;7.50;6.80;;;26.30;56.80;;;;;;4976354;28;20521;-83
2023/06/30 02:38:21;;;;;;;8.03;7.23;;;26.30;56.60;;;;;;4976499;28;20424;-83
2023/06/30 02:40:49;;;;;;;7.13;6.43;;;26.20;56.60;;;;;;4976841;28;20453;-84
2023/06/30 02:43:18;;;;;;;8.33;7.40;;;26.30;56.70;;;;;;4975525;28;20459;-82
2023/06/30 02:45:46;;;;;;;8.37;6.63;;;26.20;56.60;;;;;;4975684;28;20563;-83
2023/06/30 02:48:15;;;;;;;8.00;7.20;;;26.20;56.50;;;;;;4976503;28;20446;-83
2023/06/30 02:50:44;;;;;;;7.33;6.63;;;26.20;56.40;;;;;;4976565;28;20475;-83
2023/06/30 02:53:13;;;;;;;6.63;6.03;;;26.20;56.60;;;;;;4975888;28;20448;-83
2023/06/30 02:55:41;;;;;;;7.40;6.67;;;26.20;56.50;;;;;;4976040;28;20445;-83
2023/06/30 02:58:10;;;;;;;7.23;6.40;;;26.20;56.60;;;;;;4976165;28;20485;-83
2023/06/30 03:00:39;;;;;;;6.37;5.50;;;26.20;56.40;;;;;;4973799;28;20793;-83
2023/06/30 03:03:07;;;;;;;8.83;7.00;;;26.20;56.60;;;;;;4973044;28;20517;-83
2023/06/30 03:05:35;;;;;;;7.07;6.10;;;26.20;56.40;;;;;;4978626;28;20987;-84
2023/06/30 03:08:03;;;;;;;6.70;5.77;;;26.20;56.30;;;;;;4989776;28;20408;-83
2023/06/30 03:10:33;;;;;;;6.60;5.90;;;26.20;56.40;;;;;;4991819;28;20427;-81
2023/06/30 03:13:01;;;;;;;6.80;6.20;;;26.20;56.40;;;;;;4985586;28;20458;-82
2023/06/30 03:15:29;;;;;;;7.47;6.30;;;26.20;56.40;;;;;;4991567;28;20504;-82
2023/06/30 03:17:57;;;;;;;7.13;6.27;;;26.20;56.30;;;;;;4976326;28;20480;-82
2023/06/30 03:20:26;;;;;;;6.67;5.97;;;26.20;56.20;;;;;;4975150;28;20433;-82
2023/06/30 03:22:54;;;;;;;6.40;5.80;;;26.20;56.20;;;;;;4975514;28;20464;-82
2023/06/30 03:25:22;;;;;;;6.47;5.87;;;26.10;56.20;;;;;;4976180;28;20474;-81
2023/06/30 03:27:52;;;;;;;6.27;5.60;;;26.10;56.20;;;;;;4981873;28;20419;-83
2023/06/30 03:30:20;;;;;;;7.63;5.40;;;26.10;56.10;;;;;;4995899;28;20480;-81
2023/06/30 03:32:48;;;;;;;6.87;6.27;;;26.10;56.00;;;;;;4983221;28;20487;-82
2023/06/30 03:35:17;;;;;;;5.87;5.37;;;26.10;56.00;;;;;;4986099;28;20477;-83
2023/06/30 03:37:45;;;;;;;5.43;4.93;;;26.10;56.00;;;;;;4976432;28;20544;-82
2023/06/30 03:40:13;;;;;;;5.77;5.27;;;26.10;56.00;;;;;;4983897;28;20968;-82
2023/06/30 03:42:41;;;;;;;6.90;5.40;;;26.10;56.10;;;;;;4979559;28;20443;-83
2023/06/30 03:45:11;;;;;;;5.87;5.37;;;26.10;56.00;;;;;;4988061;28;20472;-82
2023/06/30 03:47:39;;;;;;;6.07;5.50;;;26.10;55.80;;;;;;4987844;28;20427;-83
2023/06/30 03:50:08;;;;;;;6.20;5.70;;;26.10;55.90;;;;;;4986063;28;20412;-83
2023/06/30 03:52:36;;;;;;;5.87;5.27;;;26.10;55.90;;;;;;4977272;28;20528;-83
2023/06/30 03:55:04;;;;;;;6.40;4.80;;;26.10;55.80;;;;;;4990128;28;20436;-82
2023/06/30 03:57:32;;;;;;;5.63;5.13;;;26.10;55.90;;;;;;4989127;28;20445;-82
2023/06/30 04:00:01;;;;;;;5.67;5.17;;;26.10;55.70;;;;;;4983917;28;20477;-83
2023/06/30 04:02:30;;;;;;;5.77;5.03;;;26.10;55.90;;;;;;4994679;28;20416;-83
2023/06/30 04:04:58;;;;;;;5.63;5.20;;;26.10;55.50;;;;;;4988287;28;20467;-83
2023/06/30 04:07:26;;;;;;;5.57;5.00;;;26.10;55.80;;;;;;4991619;28;20408;-83
2023/06/30 04:09:54;;;;;;;5.40;4.97;;;26.10;56.30;;;;;;4978525;28;20506;-82
2023/06/30 04:12:22;;;;;;;5.10;4.70;;;26.00;55.70;;;;;;4980861;28;20416;-82
2023/06/30 04:14:50;;;;;;;5.17;4.77;;;26.10;55.90;;;;;;4999557;28;20569;-83
2023/06/30 04:17:18;;;;;;;5.33;4.93;;;26.10;55.60;;;;;;4990937;28;20448;-84
2023/06/30 04:19:47;;;;;;;6.00;4.90;;;26.10;55.60;;;;;;4991748;28;20421;-83
2023/06/30 04:22:15;;;;;;;4.93;4.53;;;26.10;55.50;;;;;;4980064;28;20425;-83
2023/06/30 04:24:44;;;;;;;5.10;4.70;;;26.10;55.50;;;;;;4978324;28;20532;-83
2023/06/30 04:27:12;;;;;;;9.03;4.87;;;26.10;55.50;;;;;;4983271;28;20504;-82
2023/06/30 04:29:40;;;;;;;5.10;4.60;;;26.10;55.40;;;;;;4981008;28;20416;-81
2023/06/30 04:32:08;;;;;;;4.63;4.23;;;26.10;55.30;;;;;;4997995;28;20449;-82
2023/06/30 04:34:36;;;;;;;4.43;4.13;;;26.10;55.30;;;;;;4991027;28;20482;-81
2023/06/30 04:37:06;;;;;;;4.93;4.53;;;26.10;55.20;;;;;;4991545;28;20447;-81
2023/06/30 04:39:35;;;;;;;4.50;4.20;;;26.10;55.30;;;;;;4978788;28;20477;-82
2023/06/30 04:42:03;;;;;;;4.90;4.17;;;26.10;55.30;;;;;;4978406;28;20429;-82
2023/06/30 04:44:32;;;;;;;4.60;4.20;;;26.10;55.20;;;;;;4978176;28;20488;-82
2023/06/30 04:47:00;;;;;;;7.00;4.50;;;26.10;55.40;;;;;;4978930;28;20423;-82
2023/06/30 04:49:29;;;;;;;5.30;4.30;;;26.00;55.20;;;;;;4978344;28;20429;-82
2023/06/30 04:51:57;;;;;;;4.70;4.20;;;26.10;55.30;;;;;;4978782;28;20447;-82
2023/06/30 04:54:26;;;;;;;4.53;4.13;;;26.00;55.10;;;;;;4978734;28;20493;-82
2023/06/30 04:56:56;;;;;;;4.40;4.00;;;26.10;55.10;;;;;;4979125;28;20416;-83
2023/06/30 04:59:24;;;;;;;6.47;3.97;;;26.00;54.80;;;;;;4977221;28;20480;-82
2023/06/30 05:01:53;;;;;;;4.00;3.70;;;26.10;55.20;;;;;;4977235;28;20428;-82
2023/06/30 05:04:21;;;;;;;4.53;4.13;;;26.10;55.10;;;;;;4986149;28;20464;-83
2023/06/30 05:06:49;;;;;;;4.03;3.73;;;26.10;55.10;;;;;;4974093;28;20467;-82
2023/06/30 05:09:18;;;;;;;4.20;3.90;;;26.10;55.10;;;;;;4978968;28;20413;-83
2023/06/30 05:11:47;;;;;;;4.13;3.73;;;26.10;54.90;;;;;;4977984;28;20444;-83
2023/06/30 05:14:16;;;;;;;4.23;3.93;;;26.10;54.80;;;;;;4978206;28;20467;-82
2023/06/30 05:16:45;;;;;;;4.77;4.33;;;26.10;54.90;;;;;;4977445;28;20466;-82
2023/06/30 05:19:13;;;;;;;4.30;4.00;;;26.10;54.90;;;;;;4977357;28;20470;-82
2023/06/30 05:21:41;;;;;;;4.00;3.70;;;26.10;55.30;;;;;;4977426;28;20504;-82
2023/06/30 05:24:09;;;;;;;4.00;3.60;;;26.20;54.80;;;;;;4977823;28;20424;-81
2023/06/30 05:26:37;;;;;;;3.87;3.53;;;26.20;54.70;;;;;;4977634;28;20918;-82
2023/06/30 05:29:09;;;;;;;6.93;3.97;;;26.20;54.40;;;;;;4978118;28;20454;-82
2023/06/30 05:31:37;;;;;;;3.97;3.57;;;26.20;54.80;;;;;;4977912;28;20446;-82
2023/06/30 05:34:05;;;;;;;4.47;3.80;;;26.20;54.70;;;;;;4981225;28;20465;-82
2023/06/30 05:36:35;;;;;;;3.90;3.60;;;26.20;54.50;;;;;;4985036;28;20460;-83
2023/06/30 05:39:04;;;;;;;4.40;3.43;;;26.20;54.70;;;;;;4985579;28;20481;-82
2023/06/30 05:41:32;;;;;;;4.17;3.70;;;26.20;54.60;;;;;;4985750;28;20513;-81
2023/06/30 05:44:00;;;;;;;4.13;3.83;;;26.20;54.60;;;;;;4990153;28;20419;-83
2023/06/30 05:46:30;;;;;;;3.70;3.40;;;26.20;54.20;;;;;;4990523;28;20441;-84
2023/06/30 05:49:02;;;;;;;3.70;3.47;;;26.20;54.60;;;;;;4981503;28;20431;-83
2023/06/30 05:51:30;;;;;;;4.27;3.90;;;26.30;54.40;;;;;;4982030;28;20473;-83
2023/06/30 05:53:58;;;;;;;4.57;3.67;;;26.30;54.20;;;;;;4971669;28;20454;-82
2023/06/30 05:56:27;;;;;;;4.10;3.80;;;26.30;54.40;;;;;;4973495;28;20425;-83
2023/06/30 05:58:55;;;;;;;4.27;3.70;;;26.30;54.40;;;;;;4977859;28;20450;-84
2023/06/30 06:01:23;;;;;;;3.93;3.63;;;26.30;54.50;;;;;;4965552;28;20497;-84
2023/06/30 06:03:53;;;;;;;3.90;3.60;;;26.30;54.50;;;;;;4990810;28;20428;-83
2023/06/30 06:06:22;;;;;;;3.90;3.60;;;26.30;54.40;;;;;;4979130;28;20480;-83
2023/06/30 06:08:50;;;;;;;3.73;3.43;;;26.30;54.20;;;;;;4986545;28;20491;-83
2023/06/30 06:11:18;;;;;;;4.00;3.60;;;26.30;54.20;;;;;;4991381;28;20441;-83
2023/06/30 06:13:46;;;;;;;3.80;3.50;;;26.30;54.50;;;;;;4993306;28;20496;-83
2023/06/30 06:16:15;;;;;;;3.97;3.47;;;26.30;54.00;;;;;;4986380;28;20532;-83
2023/06/30 06:18:43;;;;;;;3.60;3.00;;;26.30;54.30;;;;;;4983423;28;20864;-83
2023/06/30 06:21:16;;;;;;;3.50;3.20;;;26.40;54.20;;;;;;4988136;28;20499;-83
2023/06/30 06:23:44;;;;;;;3.43;3.13;;;26.40;54.00;;;;;;4980167;28;20845;-85
2023/06/30 06:26:12;;;;;;;3.90;3.50;;;26.50;54.10;;;;;;4975487;28;20503;-84
2023/06/30 06:28:40;;;;;;;3.40;3.10;;;26.50;54.20;;;;;;4970259;28;20426;-84
2023/06/30 06:31:09;;;;;;;4.10;3.70;;;26.50;54.00;;;;;;4972008;28;20479;-84
2023/06/30 06:33:37;;;;;;;3.50;3.20;;;26.60;54.00;;;;;;4980295;28;20420;-84
2023/06/30 06:36:06;;;;;;;4.60;3.20;;;26.60;53.90;;;;;;4980596;28;21027;-84
2023/06/30 06:38:35;;;;;;;3.43;3.13;;;26.60;54.00;;;;;;4982598;28;20444;-83
2023/06/30 06:41:11;;;;;;;3.53;2.80;;;26.60;53.70;;;;;;4972113;28;20983;-82
2023/06/30 06:43:39;;;;;;;2.97;2.77;;;26.70;53.50;;;;;;4981875;28;20417;-81
2023/06/30 06:46:07;;;;;;;6.83;2.87;;;26.70;53.50;;;;;;4984793;28;20449;-81
2023/06/30 06:48:36;;;;;;;2.87;2.67;;;26.70;53.60;;;;;;4977809;28;20484;-82
2023/06/30 06:51:05;;;;;;;3.20;2.90;;;26.70;53.50;;;;;;4991246;28;20432;-82
2023/06/30 06:53:35;;;;;;;3.10;2.90;;;26.80;53.40;;;;;;4987831;28;20425;-82
2023/06/30 06:56:04;;;;;;;3.00;2.80;;;26.80;53.50;;;;;;4988604;28;20440;-82
2023/06/30 06:58:32;;;;;;;8.80;2.67;;;26.80;53.60;;;;;;5003678;28;20484;-83
2023/06/30 07:01:00;;;;;;;6.10;2.83;;;26.40;54.40;;;;;;4989822;28;20464;-80
2023/06/30 07:03:29;;;;;;;9.83;2.93;;;25.70;56.50;;;;;;5004770;28;20459;-80
2023/06/30 07:05:57;;;;;;;7.20;3.60;;;24.90;57.80;;;;;;4992852;28;20436;-81
2023/06/30 07:08:25;;;;;;;5.70;2.73;;;24.40;58.80;;;;;;4999330;28;20475;-81
2023/06/30 07:10:55;;;;;;;6.83;3.40;;;24.10;61.40;;;;;;4988657;28;20487;-80
2023/06/30 07:13:23;;;;;;;13.00;3.40;;;23.40;61.90;;;;;;4984675;28;20469;-79
2023/06/30 07:15:52;;;;;;;7.70;3.50;;;23.20;63.10;;;;;;4975148;28;20474;-80
2023/06/30 07:18:20;;;;;;;5.23;3.27;;;22.90;64.90;;;;;;4980688;28;20492;-79
2023/06/30 07:23:56;;;;;;;6.87;3.00;;;22.40;66.90;;;;;;4969561;28;20478;-80
2023/06/30 07:26:26;;;;;;;11.13;3.40;;;22.30;68.80;;;;;;4980255;28;20424;-80
2023/06/30 07:28:54;;;;;;;8.30;2.77;;;22.40;70.30;;;;;;4976646;28;20633;-81
2023/06/30 07:31:22;;;;;;;11.37;3.00;;;22.80;72.10;;;;;;4983747;28;20954;-82
2023/06/30 07:33:51;;;;;;;5.60;2.43;;;23.70;68.90;;;;;;4977427;28;20516;-82
2023/06/30 07:36:19;;;;;;;7.37;2.20;;;24.40;65.80;;;;;;4980713;28;20445;-82
2023/06/30 07:38:47;;;;;;;3.40;1.97;;;25.00;63.50;;;;;;4983304;28;20457;-83
2023/06/30 07:41:15;;;;;;;13.33;2.33;;;25.50;61.60;;;;;;4988020;28;20446;-83
2023/06/30 07:43:45;;;;;;;5.27;2.17;;;25.90;60.00;;;;;;4985102;28;20409;-83
2023/06/30 07:46:14;;;;;;;6.40;2.00;;;26.20;58.80;;;;;;4984471;28;20445;-83
2023/06/30 07:48:42;;;;;;;4.10;2.20;;;26.50;57.90;;;;;;4983384;28;20446;-83
2023/06/30 07:51:10;;;;;;;2.70;2.03;;;26.70;57.30;;;;;;4984397;28;20512;-83
2023/06/30 07:53:39;;;;;;;4.00;2.30;;;26.90;57.00;;;;;;4980805;28;20454;-83
2023/06/30 07:56:07;;;;;;;3.27;2.10;;;27.10;56.30;;;;;;4984538;28;20457;-82
2023/06/30 07:58:35;;;;;;;6.97;2.10;;;27.40;55.80;;;;;;4987350;28;20425;-83
2023/06/30 08:01:05;;;;;;;4.40;2.30;;;27.50;55.10;;;;;;4991830;28;20456;-83
2023/06/30 08:03:34;;;;;;;2.73;2.57;;;27.60;54.90;;;;;;4987822;28;20442;-83
2023/06/30 08:06:02;;;;;;;2.37;1.90;;;27.70;54.60;;;;;;4979452;28;20447;-82
2023/06/30 08:08:31;;;;;;;3.87;2.20;;;27.80;54.40;;;;;;4976173;28;20450;-82
2023/06/30 08:10:59;;;;;;;3.80;2.23;;;27.80;54.20;;;;;;4978451;28;20417;-82
2023/06/30 08:13:27;;;;;;;2.50;2.30;;;27.90;54.20;;;;;;4979330;28;20449;-83
2023/06/30 08:15:56;;;;;;;2.60;2.40;;;28.00;54.00;;;;;;4986746;28;20463;-83
2023/06/30 08:18:27;;;;;;;3.10;2.57;;;28.10;54.00;;;;;;4986292;28;20548;-82
2023/06/30 08:21:01;;;;;;;2.57;2.40;;;28.30;53.60;;;;;;4985269;28;20455;-83
2023/06/30 08:23:30;;;;;;;2.67;2.33;;;28.50;53.50;;;;;;4980624;28;20454;-82
2023/06/30 08:25:58;;;;;;;2.60;2.30;;;28.60;53.30;;;;;;4987642;28;20489;-83
2023/06/30 08:28:27;;;;;;;2.87;2.57;;;28.60;52.80;;;;;;4989799;28;20450;-83
2023/06/30 08:30:55;;;;;;;2.53;2.33;;;28.70;52.80;;;;;;4990036;28;20415;-83
2023/06/30 08:33:29;;;;;;;2.77;2.50;;;28.80;52.90;;;;;;4993258;28;20466;-82
2023/06/30 08:36:00;;;;;;;2.93;2.60;;;28.90;52.90;;;;;;4968426;28;20459;-82
2023/06/30 08:38:28;;;;;;;2.30;2.20;;;29.00;52.70;;;;;;4977820;28;20446;-82
2023/06/30 08:40:56;;;;;;;4.50;2.50;;;29.30;52.60;;;;;;4984251;28;21005;-82
2023/06/30 08:43:24;;;;;;;4.13;2.70;;;29.40;52.20;;;;;;4982788;28;20485;-82
2023/06/30 08:45:54;;;;;;;2.83;2.30;;;29.50;51.90;;;;;;4979410;28;20549;-83
2023/06/30 08:48:22;;;;;;;3.87;2.77;;;29.50;51.80;;;;;;4980373;28;20470;-83
2023/06/30 08:50:52;;;;;;;7.10;2.60;;;29.50;51.70;;;;;;4976103;28;20450;-83
2023/06/30 08:53:23;;;;;;;3.23;2.43;;;29.60;51.70;;;;;;4986188;28;20453;-83
2023/06/30 08:55:51;;;;;;;3.00;2.80;;;29.50;51.60;;;;;;4972832;28;20504;-82
2023/06/30 08:58:20;;;;;;;2.53;2.33;;;29.50;51.70;;;;;;4975910;28;20438;-82
2023/06/30 09:00:53;;;;;;;4.33;2.40;;;29.50;51.80;;;;;;4984622;28;20448;-83
2023/06/30 09:03:22;;;;;;;4.60;2.60;;;29.70;51.90;;;;;;4988736;28;20428;-83
2023/06/30 09:05:54;;;;;;;3.67;2.90;;;29.80;51.70;;;;;;4973475;28;20462;-85
2023/06/30 09:08:23;;;;;;;3.13;2.40;;;30.00;51.70;;;;;;4979581;28;20474;-84
2023/06/30 09:10:52;;;;;;;2.80;2.60;;;30.20;51.50;;;;;;4977826;28;20498;-85
2023/06/30 09:13:21;;;;;;;4.43;2.70;;;30.50;51.40;;;;;;4982301;28;20454;-85
2023/06/30 09:15:50;;;;;;;2.77;2.57;;;30.60;51.00;;;;;;4972080;28;20513;-84
2023/06/30 09:18:18;;;;;;;2.73;2.30;;;30.70;50.80;;;;;;4981094;28;20951;-84
2023/06/30 09:20:46;;;;;;;2.47;2.27;;;30.90;50.70;;;;;;4977791;28;20568;-85
2023/06/30 09:23:16;;;;;;;2.20;2.10;;;31.00;50.50;;;;;;4978124;28;20501;-85
2023/06/30 09:25:44;;;;;;;2.20;2.10;;;31.20;50.20;;;;;;4981957;28;20563;-84
2023/06/30 09:28:14;;;;;;;4.13;2.30;;;31.10;49.80;;;;;;4982729;28;20504;-84
2023/06/30 09:30:46;;;;;;;2.60;2.50;;;31.10;49.70;;;;;;4986136;28;20462;-84
2023/06/30 09:33:15;;;;;;;2.73;2.60;;;31.00;49.80;;;;;;4986656;28;20445;-84
2023/06/30 09:35:44;;;;;;;2.70;2.50;;;31.00;49.80;;;;;;4987842;28;20470;-84
2023/06/30 09:38:13;;;;;;;3.30;3.00;;;31.00;50.00;;;;;;4988651;28;20537;-85
2023/06/30 09:40:44;;;;;;;3.27;3.07;;;31.00;49.90;;;;;;4975071;28;20497;-85
2023/06/30 09:43:19;;;;;;;2.73;2.53;;;31.10;50.00;;;;;;4974637;28;20444;-84
2023/06/30 09:45:48;;;;;;;2.80;2.70;;;31.30;50.10;;;;;;4987104;28;20452;-84
2023/06/30 09:48:17;;;;;;;2.70;2.50;;;31.50;49.90;;;;;;4985194;28;20438;-83
2023/06/30 09:50:45;;;;;;;2.92;2.72;;;31.60;49.50;;;;;;4983797;28;21000;-82
2023/06/30 09:53:19;;;;;;;2.90;2.70;;;31.30;49.40;;;;;;4986936;28;20224;-83
2023/06/30 09:55:49;;;;;;;2.83;2.67;;;31.20;49.80;;;;;;4991175;28;20461;-84
2023/06/30 09:58:18;;;;;;;2.90;2.70;;;31.20;49.60;;;;;;4989397;28;20439;-82
2023/06/30 10:00:46;;;;;;;2.70;2.50;;;31.40;49.70;;;;;;4987307;28;21020;-83
2023/06/30 10:03:16;;;;;;;3.13;2.93;;;31.50;49.70;;;;;;4995058;28;20434;-84
2023/06/30 10:06:04;;;;;;;3.27;3.00;;;31.70;49.50;;;;;;4995086;28;20470;-83
2023/06/30 10:08:33;;;;;;;2.80;2.60;;;31.90;49.60;;;;;;4996129;28;20453;-84
2023/06/30 10:11:02;;;;;;;2.90;2.63;;;32.10;49.20;;;;;;4986457;28;20455;-83
2023/06/30 10:13:31;;;;;;;2.73;2.60;;;32.40;48.90;;;;;;4983223;28;20965;-82
2023/06/30 10:15:59;;;;;;;2.90;2.77;;;32.60;48.70;;;;;;4987630;28;20484;-82
2023/06/30 10:18:27;;;;;;;2.87;2.67;;;32.90;48.50;;;;;;4985367;28;20438;-83
2023/06/30 10:20:56;;;;;;;2.43;2.33;;;33.10;48.10;;;;;;4988631;28;20473;-83
2023/06/30 10:23:24;;;;;;;2.43;2.23;;;33.40;47.50;;;;;;4979582;28;20455;-83
2023/06/30 10:25:52;;;;;;;2.37;2.27;;;33.40;46.90;;;;;;4974385;28;20504;-83
2023/06/30 10:28:21;;;;;;;2.53;2.33;;;33.40;46.60;;;;;;4983206;28;21001;-84
2023/06/30 10:30:50;;;;;;;2.03;1.93;;;33.30;46.50;;;;;;4969367;28;20435;-84
2023/06/30 10:33:18;;;;;;;2.70;2.50;;;33.30;46.60;;;;;;4983143;28;20442;-84
2023/06/30 10:35:46;;;;;;;2.27;2.17;;;33.20;46.70;;;;;;4987452;28;20461;-84
2023/06/30 10:38:15;;;;;;;2.10;2.00;;;33.20;46.60;;;;;;4989304;28;21023;-83
2023/06/30 10:40:43;;;;;;;2.50;2.30;;;33.10;46.40;;;;;;4984453;28;20520;-83
2023/06/30 10:43:13;;;;;;;3.33;2.40;;;33.20;46.80;;;;;;4986150;28;20445;-85
2023/06/30 10:46:06;;;;;;;2.20;2.10;;;33.40;46.80;;;;;;4978415;28;20540;-83
2023/06/30 10:48:39;;;;;;;2.30;2.10;;;33.60;46.70;;;;;;4983187;28;20442;-84
2023/06/30 10:51:11;;;;;;;2.23;2.13;;;33.90;46.40;;;;;;4986836;28;20440;-82
2023/06/30 10:53:39;;;;;;;2.30;2.20;;;34.20;46.20;;;;;;4987400;28;20435;-83
2023/06/30 10:56:07;;;;;;;4.07;2.00;;;34.50;45.80;;;;;;4987970;28;20462;-84
2023/06/30 10:58:40;;;;;;;2.20;2.00;;;34.80;45.20;;;;;;4979582;28;20505;-83
2023/06/30 11:01:10;;;;;;;2.23;2.07;;;34.80;44.50;;;;;;4984524;28;20524;-83
2023/06/30 11:04:11;;;;;;;1.80;1.63;;;34.70;44.20;;;;;;4979117;28;20438;-83
2023/06/30 11:06:40;;;;;;;1.93;1.83;;;34.60;44.60;;;;;;4973564;28;20457;-83
2023/06/30 11:09:10;;;;;;;1.93;1.83;;;34.40;44.50;;;;;;4981478;28;20488;-83
2023/06/30 11:11:48;;;;;;;2.50;2.30;;;34.30;44.50;;;;;;4960780;28;20451;-83
2023/06/30 11:14:24;;;;;;;1.93;1.87;;;34.20;44.80;;;;;;4967821;28;20446;-84
2023/06/30 11:17:03;;;;;;;2.00;1.90;;;34.40;45.40;;;;;;4979997;28;20433;-81
2023/06/30 11:19:31;;;;;;;1.87;1.70;;;34.60;45.30;;;;;;4990319;28;20496;-83
2023/06/30 11:22:21;;;;;;;1.43;1.33;;;35.00;45.30;;;;;;4994859;28;20482;-82
2023/06/30 11:24:49;;;;;;;2.47;2.27;;;35.20;44.60;;;;;;4972029;28;20468;-81
2023/06/30 11:27:17;;;;;;;2.30;2.10;;;35.70;44.20;;;;;;4985395;28;20942;-82
2023/06/30 11:29:48;;;;;;;3.73;1.50;;;36.80;43.00;;;;;;4985525;28;20469;-83
2023/06/30 11:32:19;;;;;;;2.13;1.93;;;36.50;41.70;;;;;;4983277;28;20446;-82
2023/06/30 11:34:47;;;;;;;1.67;1.57;;;36.40;42.50;;;;;;4981887;28;20552;-83
2023/06/30 11:37:15;;;;;;;1.93;1.83;;;37.40;41.90;;;;;;4983611;28;20446;-84
2023/06/30 11:39:50;;;;;;;2.00;1.60;;;38.10;41.10;;;;;;4976420;28;20554;-82
2023/06/30 11:42:18;;;;;;;1.67;1.57;;;38.50;39.90;;;;;;4970825;28;20473;-83
2023/06/30 11:44:54;;;;;;;1.63;1.53;;;38.20;39.40;;;;;;4984087;28;20558;-82
2023/06/30 11:47:25;;;;;;;1.80;1.60;;;38.20;39.60;;;;;;4982937;28;20473;-82
2023/06/30 11:49:53;;;;;;;2.73;1.57;;;38.50;39.40;;;;;;4986920;28;20449;-82
2023/06/30 11:52:22;;;;;;;1.83;1.73;;;38.30;39.20;;;;;;4991194;28;20429;-82
2023/06/30 11:54:50;;;;;;;1.27;1.07;;;38.30;39.00;;;;;;4982703;28;20469;-80
2023/06/30 11:57:18;;;;;;;1.10;1.00;;;35.70;29.80;;;;;;4987095;28;20488;-80
2023/06/30 11:59:46;;;;;;;5.77;1.67;;;34.30;31.50;;;;;;4987496;28;20450;-80
2023/06/30 12:02:14;;;;;;;1.73;1.40;;;33.60;31.80;;;;;;4999403;28;20504;-80
2023/06/30 12:04:48;;;;;;;3.37;1.80;;;33.30;34.50;;;;;;4992583;28;20493;-81
2023/06/30 12:07:16;;;;;;;8.57;3.93;;;34.30;34.70;;;;;;5001030;28;20447;-81
2023/06/30 12:09:46;;;;;;;4.77;3.87;;;34.60;32.50;;;;;;4998891;28;20531;-81
2023/06/30 12:12:26;;;;;;;3.30;1.30;;;34.50;32.60;;;;;;4999496;28;20984;-80
2023/06/30 12:14:55;;;;;;;2.33;2.17;;;33.40;33.10;;;;;;4985622;28;20466;-80
2023/06/30 12:17:27;;;;;;;1.20;1.10;;;33.30;32.80;;;;;;4993398;28;20449;-81
2023/06/30 12:19:57;;;;;;;3.00;1.83;;;33.30;34.20;;;;;;4990955;28;21033;-81
2023/06/30 12:22:27;;;;;;;11.47;4.70;;;33.80;33.70;;;;;;4992004;28;20481;-80
2023/06/30 12:24:55;;;;;;;7.07;2.47;;;33.40;34.40;;;;;;4990570;28;20484;-78
2023/06/30 12:27:25;;;;;;;2.90;2.13;;;32.30;33.60;;;;;;4987772;28;20486;-78
2023/06/30 12:29:53;;;;;;;3.37;1.53;;;32.80;34.90;;;;;;4983490;28;20434;-79
2023/06/30 12:32:22;;;;;;;3.60;2.27;;;32.40;33.10;;;;;;4991229;28;20451;-78
2023/06/30 12:34:52;;;;;;;3.60;2.20;;;32.10;34.60;;;;;;4990096;28;20553;-79
2023/06/30 12:37:23;;;;;;;6.30;1.60;;;32.10;35.60;;;;;;5001086;28;20438;-80
2023/06/30 12:39:52;;;;;;;2.60;1.43;;;32.50;34.90;;;;;;4981624;28;20825;-80
2023/06/30 12:42:20;;;;;;;3.77;2.90;;;32.30;35.10;;;;;;4986650;28;20470;-82
2023/06/30 12:44:48;;;;;;;7.00;2.37;;;32.20;35.00;;;;;;4993046;28;20472;-81
2023/06/30 12:47:17;;;;;;;2.43;1.40;;;32.10;36.00;;;;;;4996566;28;20740;-82
2023/06/30 12:49:46;;;;;;;2.00;1.80;;;31.60;35.60;;;;;;4995222;28;20472;-81
2023/06/30 12:52:15;;;;;;;2.93;2.00;;;31.60;36.40;;;;;;4995630;28;20461;-81
2023/06/30 12:54:46;;;;;;;3.00;1.80;;;31.30;34.70;;;;;;4976588;28;20494;-81
2023/06/30 12:57:14;;;;;;;5.30;2.40;;;31.10;36.30;;;;;;4984234;28;20438;-81
2023/06/30 12:59:43;;;;;;;4.43;1.80;;;31.10;36.70;;;;;;4983850;28;20439;-81
2023/06/30 13:02:11;;;;;;;6.00;5.10;;;31.00;36.90;;;;;;4971183;28;20509;-80
2023/06/30 13:04:39;;;;;;;8.47;3.50;;;30.80;36.50;;;;;;4976276;28;20467;-82
2023/06/30 13:07:07;;;;;;;7.20;3.07;;;30.70;36.60;;;;;;4972238;28;20477;-78